sensor_id;sensor_type;location;lat;lon;timestamp;P1;durP1;ratioP1;P2;durP2;ratioP2
6787;SDS011;3431;47.966;10.268;2023-02-15T00:00:12;17.45;;;8.63;;
6787;SDS011;3431;47.966;10.268;2023-02-15T00:00:34;15.38;;;8.23;;
6787;SDS011;3431;47.966;10.268;2023-02-15T00:01:04;15.15;;;8.52;;
6787;SDS011;3431;47.966;10.268;2023-02-15T00:01:26;16.95;;;8.52;;
6787;SDS011;3431;47.966;10.268;2023-02-15T00:01:49;26.38;;;8.65;;
6787;SDS011;3431;47.966;10.268;2023-02-15T00:02:10;19.75;;;9.63;;
6787;SDS011;3431;47.966;10.268;2023-02-15T00:02:32;31.35;;;9.88;;
6787;SDS011;3431;47.966;10.268;2023-02-15T00:02:53;22.25;;;8.68;;
6787;SDS011;3431;47.966;10.268;2023-02-15T00:03:16;30.17;;;9.15;;
6787;SDS011;3431;47.966;10.268;2023-02-15T00:03:37;19.40;;;8.52;;
6787;SDS011;3431;47.966;10.268;2023-02-15T00:03:59;13.52;;;8.10;;
6787;SDS011;3431;47.966;10.268;2023-02-15T00:04:22;21.80;;;8.20;;
6787;SDS011;3431;47.966;10.268;2023-02-15T00:05:06;13.83;;;8.03;;
6787;SDS011;3431;47.966;10.268;2023-02-15T00:05:29;17.75;;;7.78;;
6787;SDS011;3431;47.966;10.268;2023-02-15T00:05:51;9.93;;;7.40;;
6787;SDS011;3431;47.966;10.268;2023-02-15T00:06:14;15.77;;;8.10;;
6787;SDS011;3431;47.966;10.268;2023-02-15T00:06:35;11.38;;;8.50;;
6787;SDS011;3431;47.966;10.268;2023-02-15T00:06:57;20.85;;;8.73;;
6787;SDS011;3431;47.966;10.268;2023-02-15T00:07:19;17.60;;;8.40;;
6787;SDS011;3431;47.966;10.268;2023-02-15T00:07:43;20.87;;;9.50;;
6787;SDS011;3431;47.966;10.268;2023-02-15T00:08:04;20.40;;;8.00;;
6787;SDS011;3431;47.966;10.268;2023-02-15T00:08:26;11.15;;;8.00;;
6787;SDS011;3431;47.966;10.268;2023-02-15T00:08:47;14.38;;;8.25;;
6787;SDS011;3431;47.966;10.268;2023-02-15T00:09:10;10.32;;;7.18;;
6787;SDS011;3431;47.966;10.268;2023-02-15T00:09:33;11.15;;;7.75;;
6787;SDS011;3431;47.966;10.268;2023-02-15T00:09:54;13.68;;;7.57;;
6787;SDS011;3431;47.966;10.268;2023-02-15T00:10:16;10.15;;;8.00;;
6787;SDS011;3431;47.966;10.268;2023-02-15T00:10:38;19.73;;;8.20;;
6787;SDS011;3431;47.966;10.268;2023-02-15T00:11:04;11.07;;;7.93;;
6787;SDS011;3431;47.966;10.268;2023-02-15T00:11:26;12.05;;;8.05;;
6787;SDS011;3431;47.966;10.268;2023-02-15T00:12:00;30.30;;;8.75;;
6787;SDS011;3431;47.966;10.268;2023-02-15T00:12:21;11.30;;;8.50;;
6787;SDS011;3431;47.966;10.268;2023-02-15T00:12:44;14.48;;;8.35;;
6787;SDS011;3431;47.966;10.268;2023-02-15T00:13:05;12.27;;;7.75;;
6787;SDS011;3431;47.966;10.268;2023-02-15T00:13:27;19.10;;;8.70;;
6787;SDS011;3431;47.966;10.268;2023-02-15T00:13:48;17.93;;;8.70;;
6787;SDS011;3431;47.966;10.268;2023-02-15T00:14:12;11.40;;;8.45;;
6787;SDS011;3431;47.966;10.268;2023-02-15T00:14:34;12.63;;;8.95;;
6787;SDS011;3431;47.966;10.268;2023-02-15T00:14:56;20.37;;;9.20;;
6787;SDS011;3431;47.966;10.268;2023-02-15T00:15:17;27.77;;;9.40;;
6787;SDS011;3431;47.966;10.268;2023-02-15T00:15:40;15.88;;;8.68;;
6787;SDS011;3431;47.966;10.268;2023-02-15T00:16:01;26.35;;;9.23;;
6787;SDS011;3431;47.966;10.268;2023-02-15T00:16:23;28.42;;;9.40;;
6787;SDS011;3431;47.966;10.268;2023-02-15T00:16:45;26.98;;;9.73;;
6787;SDS011;3431;47.966;10.268;2023-02-15T00:17:09;23.67;;;9.70;;
6787;SDS011;3431;47.966;10.268;2023-02-15T00:17:30;17.73;;;9.23;;
6787;SDS011;3431;47.966;10.268;2023-02-15T00:17:52;16.52;;;9.40;;
6787;SDS011;3431;47.966;10.268;2023-02-15T00:18:13;36.95;;;10.00;;
6787;SDS011;3431;47.966;10.268;2023-02-15T00:18:35;24.40;;;9.43;;
6787;SDS011;3431;47.966;10.268;2023-02-15T00:18:57;12.88;;;9.65;;
6787;SDS011;3431;47.966;10.268;2023-02-15T00:19:22;19.80;;;9.27;;
6787;SDS011;3431;47.966;10.268;2023-02-15T00:19:43;13.90;;;8.63;;
6787;SDS011;3431;47.966;10.268;2023-02-15T00:20:05;11.43;;;8.55;;
6787;SDS011;3431;47.966;10.268;2023-02-15T00:20:28;9.40;;;8.07;;
6787;SDS011;3431;47.966;10.268;2023-02-15T00:20:50;11.13;;;9.60;;
6787;SDS011;3431;47.966;10.268;2023-02-15T00:21:11;11.35;;;9.57;;
6787;SDS011;3431;47.966;10.268;2023-02-15T00:21:33;13.05;;;8.95;;
6787;SDS011;3431;47.966;10.268;2023-02-15T00:21:56;11.80;;;8.63;;
6787;SDS011;3431;47.966;10.268;2023-02-15T00:22:19;11.57;;;8.85;;
6787;SDS011;3431;47.966;10.268;2023-02-15T00:22:42;13.57;;;8.63;;
6787;SDS011;3431;47.966;10.268;2023-02-15T00:23:04;13.35;;;8.18;;
6787;SDS011;3431;47.966;10.268;2023-02-15T00:23:26;16.35;;;8.98;;
6787;SDS011;3431;47.966;10.268;2023-02-15T00:23:48;28.35;;;9.93;;
6787;SDS011;3431;47.966;10.268;2023-02-15T00:24:10;27.65;;;10.45;;
6787;SDS011;3431;47.966;10.268;2023-02-15T00:24:33;16.05;;;9.38;;
6787;SDS011;3431;47.966;10.268;2023-02-15T00:24:56;16.08;;;9.80;;
6787;SDS011;3431;47.966;10.268;2023-02-15T00:25:17;18.38;;;8.90;;
6787;SDS011;3431;47.966;10.268;2023-02-15T00:25:39;13.88;;;8.65;;
6787;SDS011;3431;47.966;10.268;2023-02-15T00:26:04;15.48;;;8.55;;
6787;SDS011;3431;47.966;10.268;2023-02-15T00:26:27;12.65;;;8.68;;
6787;SDS011;3431;47.966;10.268;2023-02-15T00:26:50;11.60;;;7.90;;
6787;SDS011;3431;47.966;10.268;2023-02-15T00:27:11;31.38;;;9.18;;
6787;SDS011;3431;47.966;10.268;2023-02-15T00:27:34;23.90;;;9.40;;
6787;SDS011;3431;47.966;10.268;2023-02-15T00:27:57;11.23;;;9.05;;
6787;SDS011;3431;47.966;10.268;2023-02-15T00:28:20;26.50;;;9.50;;
6787;SDS011;3431;47.966;10.268;2023-02-15T00:28:42;24.85;;;9.13;;
6787;SDS011;3431;47.966;10.268;2023-02-15T00:29:04;13.98;;;9.07;;
6787;SDS011;3431;47.966;10.268;2023-02-15T00:29:27;17.05;;;9.13;;
6787;SDS011;3431;47.966;10.268;2023-02-15T00:29:48;15.13;;;8.65;;
6787;SDS011;3431;47.966;10.268;2023-02-15T00:30:10;30.13;;;9.50;;
6787;SDS011;3431;47.966;10.268;2023-02-15T00:30:32;10.70;;;8.32;;
6787;SDS011;3431;47.966;10.268;2023-02-15T00:30:56;12.20;;;9.45;;
6787;SDS011;3431;47.966;10.268;2023-02-15T00:31:24;14.55;;;9.00;;
6787;SDS011;3431;47.966;10.268;2023-02-15T00:31:47;10.25;;;8.57;;
6787;SDS011;3431;47.966;10.268;2023-02-15T00:32:09;15.70;;;8.43;;
6787;SDS011;3431;47.966;10.268;2023-02-15T00:32:31;14.57;;;8.68;;
6787;SDS011;3431;47.966;10.268;2023-02-15T00:32:53;11.63;;;8.65;;
6787;SDS011;3431;47.966;10.268;2023-02-15T00:33:14;12.55;;;9.02;;
6787;SDS011;3431;47.966;10.268;2023-02-15T00:33:36;10.27;;;8.60;;
6787;SDS011;3431;47.966;10.268;2023-02-15T00:34:00;10.27;;;9.15;;
6787;SDS011;3431;47.966;10.268;2023-02-15T00:34:24;9.82;;;8.80;;
6787;SDS011;3431;47.966;10.268;2023-02-15T00:34:49;10.35;;;8.77;;
6787;SDS011;3431;47.966;10.268;2023-02-15T00:35:11;11.82;;;8.90;;
6787;SDS011;3431;47.966;10.268;2023-02-15T00:35:33;9.60;;;8.60;;
6787;SDS011;3431;47.966;10.268;2023-02-15T00:35:55;10.23;;;9.05;;
6787;SDS011;3431;47.966;10.268;2023-02-15T00:36:17;26.63;;;9.63;;
6787;SDS011;3431;47.966;10.268;2023-02-15T00:36:39;12.93;;;8.70;;
6787;SDS011;3431;47.966;10.268;2023-02-15T00:37:01;18.48;;;9.10;;
6787;SDS011;3431;47.966;10.268;2023-02-15T00:37:23;16.95;;;9.13;;
6787;SDS011;3431;47.966;10.268;2023-02-15T00:37:46;12.50;;;9.38;;
6787;SDS011;3431;47.966;10.268;2023-02-15T00:38:08;10.55;;;9.18;;
6787;SDS011;3431;47.966;10.268;2023-02-15T00:38:30;9.63;;;8.63;;
6787;SDS011;3431;47.966;10.268;2023-02-15T00:38:53;10.75;;;8.57;;
6787;SDS011;3431;47.966;10.268;2023-02-15T00:39:15;9.40;;;8.27;;
6787;SDS011;3431;47.966;10.268;2023-02-15T00:39:38;10.38;;;8.40;;
6787;SDS011;3431;47.966;10.268;2023-02-15T00:40:01;12.02;;;8.77;;
6787;SDS011;3431;47.966;10.268;2023-02-15T00:40:24;10.45;;;8.85;;
6787;SDS011;3431;47.966;10.268;2023-02-15T00:40:51;9.98;;;8.45;;
6787;SDS011;3431;47.966;10.268;2023-02-15T00:41:13;9.70;;;8.50;;
6787;SDS011;3431;47.966;10.268;2023-02-15T00:41:36;9.68;;;8.30;;
6787;SDS011;3431;47.966;10.268;2023-02-15T00:41:58;10.10;;;8.40;;
6787;SDS011;3431;47.966;10.268;2023-02-15T00:42:19;10.20;;;7.90;;
6787;SDS011;3431;47.966;10.268;2023-02-15T00:42:42;9.50;;;8.27;;
6787;SDS011;3431;47.966;10.268;2023-02-15T00:43:03;9.95;;;8.68;;
6787;SDS011;3431;47.966;10.268;2023-02-15T00:43:25;10.70;;;8.90;;
6787;SDS011;3431;47.966;10.268;2023-02-15T00:43:47;11.90;;;9.07;;
6787;SDS011;3431;47.966;10.268;2023-02-15T00:44:09;15.35;;;9.50;;
6787;SDS011;3431;47.966;10.268;2023-02-15T00:44:31;16.63;;;9.18;;
6787;SDS011;3431;47.966;10.268;2023-02-15T00:44:53;15.70;;;9.43;;
6787;SDS011;3431;47.966;10.268;2023-02-15T00:45:15;19.27;;;9.48;;
6787;SDS011;3431;47.966;10.268;2023-02-15T00:45:36;15.82;;;9.23;;
6787;SDS011;3431;47.966;10.268;2023-02-15T00:45:59;17.05;;;9.70;;
6787;SDS011;3431;47.966;10.268;2023-02-15T00:46:21;11.00;;;9.05;;
6787;SDS011;3431;47.966;10.268;2023-02-15T00:46:43;12.98;;;9.45;;
6787;SDS011;3431;47.966;10.268;2023-02-15T00:47:05;10.82;;;8.85;;
6787;SDS011;3431;47.966;10.268;2023-02-15T00:47:27;22.15;;;9.45;;
6787;SDS011;3431;47.966;10.268;2023-02-15T00:47:49;21.58;;;9.77;;
6787;SDS011;3431;47.966;10.268;2023-02-15T00:48:10;19.13;;;9.10;;
6787;SDS011;3431;47.966;10.268;2023-02-15T00:48:33;20.88;;;8.75;;
6787;SDS011;3431;47.966;10.268;2023-02-15T00:48:54;27.92;;;9.77;;
6787;SDS011;3431;47.966;10.268;2023-02-15T00:49:16;13.82;;;9.32;;
6787;SDS011;3431;47.966;10.268;2023-02-15T00:49:37;9.98;;;7.97;;
6787;SDS011;3431;47.966;10.268;2023-02-15T00:50:00;9.18;;;8.27;;
6787;SDS011;3431;47.966;10.268;2023-02-15T00:50:21;10.13;;;9.05;;
6787;SDS011;3431;47.966;10.268;2023-02-15T00:50:44;10.27;;;8.75;;
6787;SDS011;3431;47.966;10.268;2023-02-15T00:51:06;13.18;;;8.95;;
6787;SDS011;3431;47.966;10.268;2023-02-15T00:51:28;10.82;;;8.90;;
6787;SDS011;3431;47.966;10.268;2023-02-15T00:51:51;17.25;;;9.13;;
6787;SDS011;3431;47.966;10.268;2023-02-15T00:52:12;11.55;;;8.85;;
6787;SDS011;3431;47.966;10.268;2023-02-15T00:52:34;11.90;;;8.90;;
6787;SDS011;3431;47.966;10.268;2023-02-15T00:52:59;19.90;;;9.25;;
6787;SDS011;3431;47.966;10.268;2023-02-15T00:53:21;23.52;;;10.13;;
6787;SDS011;3431;47.966;10.268;2023-02-15T00:53:43;20.30;;;9.65;;
6787;SDS011;3431;47.966;10.268;2023-02-15T00:54:05;19.83;;;9.38;;
6787;SDS011;3431;47.966;10.268;2023-02-15T00:54:26;18.05;;;9.77;;
6787;SDS011;3431;47.966;10.268;2023-02-15T00:54:50;27.63;;;9.48;;
6787;SDS011;3431;47.966;10.268;2023-02-15T00:55:12;29.47;;;10.07;;
6787;SDS011;3431;47.966;10.268;2023-02-15T00:55:33;36.58;;;9.82;;
6787;SDS011;3431;47.966;10.268;2023-02-15T00:55:55;20.38;;;8.70;;
6787;SDS011;3431;47.966;10.268;2023-02-15T00:56:18;14.77;;;9.48;;
6787;SDS011;3431;47.966;10.268;2023-02-15T00:56:40;10.77;;;9.07;;
6787;SDS011;3431;47.966;10.268;2023-02-15T00:57:02;17.30;;;8.65;;
6787;SDS011;3431;47.966;10.268;2023-02-15T00:57:23;14.45;;;8.27;;
6787;SDS011;3431;47.966;10.268;2023-02-15T00:57:46;15.60;;;9.18;;
6787;SDS011;3431;47.966;10.268;2023-02-15T00:58:08;16.98;;;8.75;;
6787;SDS011;3431;47.966;10.268;2023-02-15T00:58:30;18.80;;;8.90;;
6787;SDS011;3431;47.966;10.268;2023-02-15T00:58:51;11.13;;;9.15;;
6787;SDS011;3431;47.966;10.268;2023-02-15T00:59:13;15.32;;;8.90;;
6787;SDS011;3431;47.966;10.268;2023-02-15T00:59:35;15.77;;;9.00;;
6787;SDS011;3431;47.966;10.268;2023-02-15T00:59:57;24.20;;;9.02;;
6787;SDS011;3431;47.966;10.268;2023-02-15T01:00:19;9.32;;;7.45;;
6787;SDS011;3431;47.966;10.268;2023-02-15T01:00:41;9.52;;;7.57;;
6787;SDS011;3431;47.966;10.268;2023-02-15T01:01:05;10.43;;;8.07;;
6787;SDS011;3431;47.966;10.268;2023-02-15T01:01:29;8.90;;;7.78;;
6787;SDS011;3431;47.966;10.268;2023-02-15T01:01:50;9.60;;;7.57;;
6787;SDS011;3431;47.966;10.268;2023-02-15T01:02:14;10.73;;;7.90;;
6787;SDS011;3431;47.966;10.268;2023-02-15T01:02:35;18.48;;;8.45;;
6787;SDS011;3431;47.966;10.268;2023-02-15T01:02:57;18.90;;;8.57;;
6787;SDS011;3431;47.966;10.268;2023-02-15T01:03:19;9.27;;;7.68;;
6787;SDS011;3431;47.966;10.268;2023-02-15T01:03:41;9.10;;;7.78;;
6787;SDS011;3431;47.966;10.268;2023-02-15T01:04:04;10.25;;;9.15;;
6787;SDS011;3431;47.966;10.268;2023-02-15T01:04:26;9.63;;;8.10;;
6787;SDS011;3431;47.966;10.268;2023-02-15T01:04:47;17.17;;;8.20;;
6787;SDS011;3431;47.966;10.268;2023-02-15T01:05:10;15.60;;;7.82;;
6787;SDS011;3431;47.966;10.268;2023-02-15T01:05:32;12.20;;;7.97;;
6787;SDS011;3431;47.966;10.268;2023-02-15T01:05:54;11.50;;;8.00;;
6787;SDS011;3431;47.966;10.268;2023-02-15T01:06:16;11.80;;;7.70;;
6787;SDS011;3431;47.966;10.268;2023-02-15T01:06:38;13.00;;;8.30;;
6787;SDS011;3431;47.966;10.268;2023-02-15T01:06:59;16.85;;;7.95;;
6787;SDS011;3431;47.966;10.268;2023-02-15T01:07:22;8.25;;;7.38;;
6787;SDS011;3431;47.966;10.268;2023-02-15T01:07:44;8.98;;;7.82;;
6787;SDS011;3431;47.966;10.268;2023-02-15T01:08:06;11.35;;;8.27;;
6787;SDS011;3431;47.966;10.268;2023-02-15T01:08:28;12.05;;;8.20;;
6787;SDS011;3431;47.966;10.268;2023-02-15T01:08:51;8.75;;;7.53;;
6787;SDS011;3431;47.966;10.268;2023-02-15T01:09:13;10.18;;;7.60;;
6787;SDS011;3431;47.966;10.268;2023-02-15T01:09:35;16.15;;;8.05;;
6787;SDS011;3431;47.966;10.268;2023-02-15T01:09:57;11.73;;;7.93;;
6787;SDS011;3431;47.966;10.268;2023-02-15T01:10:19;9.23;;;7.50;;
6787;SDS011;3431;47.966;10.268;2023-02-15T01:10:40;10.63;;;7.88;;
6787;SDS011;3431;47.966;10.268;2023-02-15T01:11:04;11.38;;;8.25;;
6787;SDS011;3431;47.966;10.268;2023-02-15T01:11:27;10.18;;;8.35;;
6787;SDS011;3431;47.966;10.268;2023-02-15T01:11:48;12.38;;;9.00;;
6787;SDS011;3431;47.966;10.268;2023-02-15T01:12:10;10.50;;;8.48;;
6787;SDS011;3431;47.966;10.268;2023-02-15T01:12:32;9.75;;;7.97;;
6787;SDS011;3431;47.966;10.268;2023-02-15T01:12:54;9.65;;;7.63;;
6787;SDS011;3431;47.966;10.268;2023-02-15T01:13:16;10.50;;;8.20;;
6787;SDS011;3431;47.966;10.268;2023-02-15T01:13:38;10.27;;;8.13;;
6787;SDS011;3431;47.966;10.268;2023-02-15T01:14:01;14.68;;;7.90;;
6787;SDS011;3431;47.966;10.268;2023-02-15T01:14:24;10.63;;;7.60;;
6787;SDS011;3431;47.966;10.268;2023-02-15T01:14:45;8.32;;;7.47;;
6787;SDS011;3431;47.966;10.268;2023-02-15T01:15:07;16.08;;;7.88;;
6787;SDS011;3431;47.966;10.268;2023-02-15T01:15:33;8.98;;;7.60;;
6787;SDS011;3431;47.966;10.268;2023-02-15T01:15:55;9.25;;;7.15;;
6787;SDS011;3431;47.966;10.268;2023-02-15T01:16:17;8.43;;;7.20;;
6787;SDS011;3431;47.966;10.268;2023-02-15T01:16:39;14.77;;;7.35;;
6787;SDS011;3431;47.966;10.268;2023-02-15T01:17:01;11.13;;;7.75;;
6787;SDS011;3431;47.966;10.268;2023-02-15T01:17:23;9.88;;;7.38;;
6787;SDS011;3431;47.966;10.268;2023-02-15T01:17:44;16.90;;;7.97;;
6787;SDS011;3431;47.966;10.268;2023-02-15T01:18:11;31.75;;;8.63;;
6787;SDS011;3431;47.966;10.268;2023-02-15T01:18:33;11.50;;;7.70;;
6787;SDS011;3431;47.966;10.268;2023-02-15T01:18:57;12.48;;;8.25;;
6787;SDS011;3431;47.966;10.268;2023-02-15T01:19:18;9.65;;;7.55;;
6787;SDS011;3431;47.966;10.268;2023-02-15T01:19:40;9.75;;;7.60;;
6787;SDS011;3431;47.966;10.268;2023-02-15T01:20:01;8.70;;;7.80;;
6787;SDS011;3431;47.966;10.268;2023-02-15T01:20:24;8.88;;;7.65;;
6787;SDS011;3431;47.966;10.268;2023-02-15T01:20:47;7.90;;;7.10;;
6787;SDS011;3431;47.966;10.268;2023-02-15T01:21:11;8.82;;;7.13;;
6787;SDS011;3431;47.966;10.268;2023-02-15T01:21:34;10.87;;;7.97;;
6787;SDS011;3431;47.966;10.268;2023-02-15T01:21:57;9.88;;;8.27;;
6787;SDS011;3431;47.966;10.268;2023-02-15T01:22:18;8.57;;;7.75;;
6787;SDS011;3431;47.966;10.268;2023-02-15T01:22:41;14.98;;;8.23;;
6787;SDS011;3431;47.966;10.268;2023-02-15T01:23:03;8.73;;;7.45;;
6787;SDS011;3431;47.966;10.268;2023-02-15T01:23:25;9.27;;;7.65;;
6787;SDS011;3431;47.966;10.268;2023-02-15T01:23:47;10.60;;;7.55;;
6787;SDS011;3431;47.966;10.268;2023-02-15T01:24:11;8.48;;;7.50;;
6787;SDS011;3431;47.966;10.268;2023-02-15T01:24:33;8.70;;;7.78;;
6787;SDS011;3431;47.966;10.268;2023-02-15T01:24:56;10.38;;;7.45;;
6787;SDS011;3431;47.966;10.268;2023-02-15T01:25:18;8.25;;;7.38;;
6787;SDS011;3431;47.966;10.268;2023-02-15T01:25:42;8.23;;;7.43;;
6787;SDS011;3431;47.966;10.268;2023-02-15T01:26:05;8.32;;;7.28;;
6787;SDS011;3431;47.966;10.268;2023-02-15T01:26:26;8.00;;;7.20;;
6787;SDS011;3431;47.966;10.268;2023-02-15T01:26:48;8.40;;;7.60;;
6787;SDS011;3431;47.966;10.268;2023-02-15T01:27:10;8.48;;;7.38;;
6787;SDS011;3431;47.966;10.268;2023-02-15T01:27:32;8.25;;;7.45;;
6787;SDS011;3431;47.966;10.268;2023-02-15T01:27:53;8.13;;;7.03;;
6787;SDS011;3431;47.966;10.268;2023-02-15T01:28:15;9.10;;;7.32;;
6787;SDS011;3431;47.966;10.268;2023-02-15T01:28:36;9.30;;;7.50;;
6787;SDS011;3431;47.966;10.268;2023-02-15T01:28:59;8.73;;;7.10;;
6787;SDS011;3431;47.966;10.268;2023-02-15T01:29:21;7.93;;;7.10;;
6787;SDS011;3431;47.966;10.268;2023-02-15T01:29:43;7.80;;;7.00;;
6787;SDS011;3431;47.966;10.268;2023-02-15T01:30:05;8.23;;;7.20;;
6787;SDS011;3431;47.966;10.268;2023-02-15T01:30:27;8.65;;;6.95;;
6787;SDS011;3431;47.966;10.268;2023-02-15T01:30:50;8.30;;;7.40;;
6787;SDS011;3431;47.966;10.268;2023-02-15T01:31:13;7.72;;;6.90;;
6787;SDS011;3431;47.966;10.268;2023-02-15T01:31:35;7.93;;;7.13;;
6787;SDS011;3431;47.966;10.268;2023-02-15T01:32:01;9.02;;;7.50;;
6787;SDS011;3431;47.966;10.268;2023-02-15T01:32:24;7.95;;;7.15;;
6787;SDS011;3431;47.966;10.268;2023-02-15T01:32:45;8.10;;;7.30;;
6787;SDS011;3431;47.966;10.268;2023-02-15T01:33:07;8.43;;;7.53;;
6787;SDS011;3431;47.966;10.268;2023-02-15T01:33:29;8.43;;;7.50;;
6787;SDS011;3431;47.966;10.268;2023-02-15T01:33:50;8.13;;;7.32;;
6787;SDS011;3431;47.966;10.268;2023-02-15T01:34:13;8.63;;;7.80;;
6787;SDS011;3431;47.966;10.268;2023-02-15T01:34:34;8.13;;;7.32;;
6787;SDS011;3431;47.966;10.268;2023-02-15T01:34:56;7.63;;;6.82;;
6787;SDS011;3431;47.966;10.268;2023-02-15T01:35:17;9.25;;;7.43;;
6787;SDS011;3431;47.966;10.268;2023-02-15T01:35:39;8.48;;;7.03;;
6787;SDS011;3431;47.966;10.268;2023-02-15T01:36:02;8.40;;;7.50;;
6787;SDS011;3431;47.966;10.268;2023-02-15T01:36:26;8.55;;;7.72;;
6787;SDS011;3431;47.966;10.268;2023-02-15T01:36:48;9.57;;;7.97;;
6787;SDS011;3431;47.966;10.268;2023-02-15T01:37:09;8.77;;;7.80;;
6787;SDS011;3431;47.966;10.268;2023-02-15T01:37:31;8.02;;;7.22;;
6787;SDS011;3431;47.966;10.268;2023-02-15T01:37:54;7.80;;;6.90;;
6787;SDS011;3431;47.966;10.268;2023-02-15T01:38:15;7.88;;;7.07;;
6787;SDS011;3431;47.966;10.268;2023-02-15T01:38:38;7.93;;;7.13;;
6787;SDS011;3431;47.966;10.268;2023-02-15T01:39:00;8.45;;;7.53;;
6787;SDS011;3431;47.966;10.268;2023-02-15T01:39:25;8.88;;;7.90;;
6787;SDS011;3431;47.966;10.268;2023-02-15T01:39:47;8.65;;;7.75;;
6787;SDS011;3431;47.966;10.268;2023-02-15T01:40:11;8.45;;;7.53;;
6787;SDS011;3431;47.966;10.268;2023-02-15T01:40:34;8.60;;;7.68;;
6787;SDS011;3431;47.966;10.268;2023-02-15T01:40:56;8.73;;;7.23;;
6787;SDS011;3431;47.966;10.268;2023-02-15T01:41:39;8.40;;;7.53;;
6787;SDS011;3431;47.966;10.268;2023-02-15T01:42:00;9.25;;;7.90;;
6787;SDS011;3431;47.966;10.268;2023-02-15T01:42:23;9.13;;;7.45;;
6787;SDS011;3431;47.966;10.268;2023-02-15T01:42:49;8.10;;;7.30;;
6787;SDS011;3431;47.966;10.268;2023-02-15T01:43:11;8.27;;;7.35;;
6787;SDS011;3431;47.966;10.268;2023-02-15T01:43:39;8.10;;;7.30;;
6787;SDS011;3431;47.966;10.268;2023-02-15T01:44:02;8.18;;;7.38;;
6787;SDS011;3431;47.966;10.268;2023-02-15T01:44:45;7.55;;;6.78;;
6787;SDS011;3431;47.966;10.268;2023-02-15T01:45:14;8.73;;;7.88;;
6787;SDS011;3431;47.966;10.268;2023-02-15T01:45:41;8.35;;;7.55;;
6787;SDS011;3431;47.966;10.268;2023-02-15T01:46:07;8.52;;;7.72;;
6787;SDS011;3431;47.966;10.268;2023-02-15T01:46:31;8.68;;;7.50;;
6787;SDS011;3431;47.966;10.268;2023-02-15T01:46:55;8.65;;;7.57;;
6787;SDS011;3431;47.966;10.268;2023-02-15T01:47:17;9.18;;;8.27;;
6787;SDS011;3431;47.966;10.268;2023-02-15T01:47:45;8.02;;;7.22;;
6787;SDS011;3431;47.966;10.268;2023-02-15T01:48:14;8.40;;;7.60;;
6787;SDS011;3431;47.966;10.268;2023-02-15T01:48:43;12.77;;;7.72;;
6787;SDS011;3431;47.966;10.268;2023-02-15T01:49:08;10.43;;;7.82;;
6787;SDS011;3431;47.966;10.268;2023-02-15T01:49:35;8.97;;;7.43;;
6787;SDS011;3431;47.966;10.268;2023-02-15T01:50:00;9.82;;;7.68;;
6787;SDS011;3431;47.966;10.268;2023-02-15T01:50:26;14.10;;;8.25;;
6787;SDS011;3431;47.966;10.268;2023-02-15T01:50:52;11.73;;;8.13;;
6787;SDS011;3431;47.966;10.268;2023-02-15T01:51:18;17.27;;;8.23;;
6787;SDS011;3431;47.966;10.268;2023-02-15T01:51:44;10.68;;;8.15;;
6787;SDS011;3431;47.966;10.268;2023-02-15T01:52:08;14.25;;;7.82;;
6787;SDS011;3431;47.966;10.268;2023-02-15T01:52:34;10.60;;;8.05;;
6787;SDS011;3431;47.966;10.268;2023-02-15T01:53:01;10.52;;;8.07;;
6787;SDS011;3431;47.966;10.268;2023-02-15T01:53:28;11.32;;;8.27;;
6787;SDS011;3431;47.966;10.268;2023-02-15T01:53:55;8.82;;;7.78;;
6787;SDS011;3431;47.966;10.268;2023-02-15T01:54:23;9.10;;;7.57;;
6787;SDS011;3431;47.966;10.268;2023-02-15T01:54:48;9.20;;;7.53;;
6787;SDS011;3431;47.966;10.268;2023-02-15T01:55:09;13.70;;;8.50;;
6787;SDS011;3431;47.966;10.268;2023-02-15T01:55:34;16.98;;;8.55;;
6787;SDS011;3431;47.966;10.268;2023-02-15T01:56:02;10.80;;;7.85;;
6787;SDS011;3431;47.966;10.268;2023-02-15T01:56:27;10.25;;;8.07;;
6787;SDS011;3431;47.966;10.268;2023-02-15T01:56:53;15.15;;;8.68;;
6787;SDS011;3431;47.966;10.268;2023-02-15T01:57:19;11.85;;;7.93;;
6787;SDS011;3431;47.966;10.268;2023-02-15T01:57:46;16.20;;;8.15;;
6787;SDS011;3431;47.966;10.268;2023-02-15T01:58:08;12.77;;;8.23;;
6787;SDS011;3431;47.966;10.268;2023-02-15T01:58:30;13.57;;;7.47;;
6787;SDS011;3431;47.966;10.268;2023-02-15T01:58:54;8.55;;;7.45;;
6787;SDS011;3431;47.966;10.268;2023-02-15T01:59:21;13.88;;;7.72;;
6787;SDS011;3431;47.966;10.268;2023-02-15T01:59:46;9.98;;;7.45;;
6787;SDS011;3431;47.966;10.268;2023-02-15T02:00:12;12.50;;;7.38;;
6787;SDS011;3431;47.966;10.268;2023-02-15T02:00:37;12.48;;;7.72;;
6787;SDS011;3431;47.966;10.268;2023-02-15T02:01:00;9.43;;;7.22;;
6787;SDS011;3431;47.966;10.268;2023-02-15T02:01:24;9.10;;;7.38;;
6787;SDS011;3431;47.966;10.268;2023-02-15T02:01:47;8.25;;;7.45;;
6787;SDS011;3431;47.966;10.268;2023-02-15T02:02:12;9.02;;;7.38;;
6787;SDS011;3431;47.966;10.268;2023-02-15T02:02:37;7.65;;;6.75;;
6787;SDS011;3431;47.966;10.268;2023-02-15T02:02:59;7.75;;;6.95;;
6787;SDS011;3431;47.966;10.268;2023-02-15T02:03:25;10.23;;;8.32;;
6787;SDS011;3431;47.966;10.268;2023-02-15T02:03:56;9.57;;;8.20;;
6787;SDS011;3431;47.966;10.268;2023-02-15T02:04:25;9.73;;;7.50;;
6787;SDS011;3431;47.966;10.268;2023-02-15T02:04:55;10.10;;;7.88;;
6787;SDS011;3431;47.966;10.268;2023-02-15T02:05:19;10.48;;;7.57;;
6787;SDS011;3431;47.966;10.268;2023-02-15T02:05:41;8.73;;;7.53;;
6787;SDS011;3431;47.966;10.268;2023-02-15T02:06:07;8.50;;;7.60;;
6787;SDS011;3431;47.966;10.268;2023-02-15T02:06:28;9.57;;;7.63;;
6787;SDS011;3431;47.966;10.268;2023-02-15T02:06:51;8.33;;;7.53;;
6787;SDS011;3431;47.966;10.268;2023-02-15T02:07:15;9.70;;;7.30;;
6787;SDS011;3431;47.966;10.268;2023-02-15T02:07:41;8.50;;;7.53;;
6787;SDS011;3431;47.966;10.268;2023-02-15T02:08:04;9.77;;;8.30;;
6787;SDS011;3431;47.966;10.268;2023-02-15T02:08:27;8.93;;;7.93;;
6787;SDS011;3431;47.966;10.268;2023-02-15T02:08:49;9.20;;;7.53;;
6787;SDS011;3431;47.966;10.268;2023-02-15T02:09:13;8.60;;;7.68;;
6787;SDS011;3431;47.966;10.268;2023-02-15T02:09:36;8.32;;;7.45;;
6787;SDS011;3431;47.966;10.268;2023-02-15T02:09:58;9.07;;;7.43;;
6787;SDS011;3431;47.966;10.268;2023-02-15T02:10:24;8.82;;;7.93;;
6787;SDS011;3431;47.966;10.268;2023-02-15T02:10:46;8.80;;;7.57;;
6787;SDS011;3431;47.966;10.268;2023-02-15T02:11:09;12.10;;;8.02;;
6787;SDS011;3431;47.966;10.268;2023-02-15T02:11:32;9.05;;;7.88;;
6787;SDS011;3431;47.966;10.268;2023-02-15T02:11:55;8.65;;;7.45;;
6787;SDS011;3431;47.966;10.268;2023-02-15T02:12:18;8.02;;;7.22;;
6787;SDS011;3431;47.966;10.268;2023-02-15T02:12:42;8.73;;;7.82;;
6787;SDS011;3431;47.966;10.268;2023-02-15T02:13:07;9.80;;;7.78;;
6787;SDS011;3431;47.966;10.268;2023-02-15T02:13:31;16.10;;;7.70;;
6787;SDS011;3431;47.966;10.268;2023-02-15T02:13:52;15.43;;;8.00;;
6787;SDS011;3431;47.966;10.268;2023-02-15T02:14:16;8.90;;;7.28;;
6787;SDS011;3431;47.966;10.268;2023-02-15T02:14:38;9.40;;;7.88;;
6787;SDS011;3431;47.966;10.268;2023-02-15T02:15:01;8.07;;;7.28;;
6787;SDS011;3431;47.966;10.268;2023-02-15T02:15:24;9.10;;;7.65;;
6787;SDS011;3431;47.966;10.268;2023-02-15T02:15:56;8.30;;;7.47;;
6787;SDS011;3431;47.966;10.268;2023-02-15T02:16:23;8.50;;;7.60;;
6787;SDS011;3431;47.966;10.268;2023-02-15T02:16:50;8.82;;;7.90;;
6787;SDS011;3431;47.966;10.268;2023-02-15T02:17:20;9.40;;;8.02;;
6787;SDS011;3431;47.966;10.268;2023-02-15T02:17:54;9.60;;;7.85;;
6787;SDS011;3431;47.966;10.268;2023-02-15T02:18:28;15.88;;;8.50;;
6787;SDS011;3431;47.966;10.268;2023-02-15T02:19:05;16.15;;;9.63;;
6787;SDS011;3431;47.966;10.268;2023-02-15T02:19:57;15.73;;;8.98;;
6787;SDS011;3431;47.966;10.268;2023-02-15T02:20:44;15.80;;;8.48;;
6787;SDS011;3431;47.966;10.268;2023-02-15T02:22:23;20.00;;;8.70;;
6787;SDS011;3431;47.966;10.268;2023-02-15T02:23:51;9.48;;;7.85;;
6787;SDS011;3431;47.966;10.268;2023-02-15T02:24:39;14.18;;;7.95;;